sensor_id;sensor_type;location;lat;lon;timestamp;P1;durP1;ratioP1;P2;durP2;ratioP2
11006;SDS011;8186;57.652;11.968;2023-04-24T00:00:13;22.37;;;19.97;;
11006;SDS011;8186;57.652;11.968;2023-04-24T00:02:42;21.30;;;19.20;;
11006;SDS011;8186;57.652;11.968;2023-04-24T00:05:11;21.03;;;18.87;;
11006;SDS011;8186;57.652;11.968;2023-04-24T00:07:39;21.30;;;19.10;;
11006;SDS011;8186;57.652;11.968;2023-04-24T00:10:06;20.70;;;18.60;;
11006;SDS011;8186;57.652;11.968;2023-04-24T00:12:34;20.73;;;18.63;;
11006;SDS011;8186;57.652;11.968;2023-04-24T00:15:02;21.37;;;18.83;;
11006;SDS011;8186;57.652;11.968;2023-04-24T00:17:29;19.83;;;17.73;;
11006;SDS011;8186;57.652;11.968;2023-04-24T00:19:57;21.37;;;18.83;;
11006;SDS011;8186;57.652;11.968;2023-04-24T00:22:24;19.70;;;17.70;;
11006;SDS011;8186;57.652;11.968;2023-04-24T00:24:51;22.00;;;19.47;;
11006;SDS011;8186;57.652;11.968;2023-04-24T00:27:18;21.20;;;18.90;;
11006;SDS011;8186;57.652;11.968;2023-04-24T00:29:45;20.40;;;18.20;;
11006;SDS011;8186;57.652;11.968;2023-04-24T00:32:12;21.30;;;19.03;;
11006;SDS011;8186;57.652;11.968;2023-04-24T00:34:39;19.77;;;17.77;;
11006;SDS011;8186;57.652;11.968;2023-04-24T00:37:07;21.43;;;19.17;;
11006;SDS011;8186;57.652;11.968;2023-04-24T00:39:34;22.30;;;19.83;;
11006;SDS011;8186;57.652;11.968;2023-04-24T00:42:01;20.93;;;18.33;;
11006;SDS011;8186;57.652;11.968;2023-04-24T00:44:30;22.33;;;19.27;;
11006;SDS011;8186;57.652;11.968;2023-04-24T00:46:57;20.60;;;17.87;;
11006;SDS011;8186;57.652;11.968;2023-04-24T00:49:25;21.13;;;18.80;;
11006;SDS011;8186;57.652;11.968;2023-04-24T00:51:52;21.77;;;19.57;;
11006;SDS011;8186;57.652;11.968;2023-04-24T00:54:20;22.67;;;18.50;;
11006;SDS011;8186;57.652;11.968;2023-04-24T00:56:47;21.63;;;19.43;;
11006;SDS011;8186;57.652;11.968;2023-04-24T00:59:16;21.17;;;18.90;;
11006;SDS011;8186;57.652;11.968;2023-04-24T01:01:43;21.23;;;18.70;;
11006;SDS011;8186;57.652;11.968;2023-04-24T01:04:11;19.80;;;17.70;;
11006;SDS011;8186;57.652;11.968;2023-04-24T01:06:39;21.70;;;19.00;;
11006;SDS011;8186;57.652;11.968;2023-04-24T01:09:06;21.37;;;19.07;;
11006;SDS011;8186;57.652;11.968;2023-04-24T01:11:35;21.63;;;18.23;;
11006;SDS011;8186;57.652;11.968;2023-04-24T01:14:03;20.73;;;18.50;;
11006;SDS011;8186;57.652;11.968;2023-04-24T01:16:30;20.93;;;18.10;;
11006;SDS011;8186;57.652;11.968;2023-04-24T01:18:57;20.23;;;17.73;;
11006;SDS011;8186;57.652;11.968;2023-04-24T01:21:23;22.63;;;17.97;;
11006;SDS011;8186;57.652;11.968;2023-04-24T01:23:54;20.47;;;18.23;;
11006;SDS011;8186;57.652;11.968;2023-04-24T01:26:21;20.33;;;18.33;;
11006;SDS011;8186;57.652;11.968;2023-04-24T01:28:50;21.57;;;17.80;;
11006;SDS011;8186;57.652;11.968;2023-04-24T01:31:17;19.03;;;17.03;;
11006;SDS011;8186;57.652;11.968;2023-04-24T01:33:45;19.77;;;17.67;;
11006;SDS011;8186;57.652;11.968;2023-04-24T01:36:12;20.07;;;17.87;;
11006;SDS011;8186;57.652;11.968;2023-04-24T01:38:40;19.37;;;16.50;;
11006;SDS011;8186;57.652;11.968;2023-04-24T01:41:08;19.17;;;16.87;;
11006;SDS011;8186;57.652;11.968;2023-04-24T01:43:35;18.60;;;16.40;;
11006;SDS011;8186;57.652;11.968;2023-04-24T01:46:02;18.70;;;16.77;;
11006;SDS011;8186;57.652;11.968;2023-04-24T01:48:29;20.20;;;17.87;;
11006;SDS011;8186;57.652;11.968;2023-04-24T01:50:57;21.20;;;16.80;;
11006;SDS011;8186;57.652;11.968;2023-04-24T01:53:23;20.33;;;17.53;;
11006;SDS011;8186;57.652;11.968;2023-04-24T01:55:50;19.87;;;17.27;;
11006;SDS011;8186;57.652;11.968;2023-04-24T01:58:19;19.17;;;17.13;;
11006;SDS011;8186;57.652;11.968;2023-04-24T02:00:46;18.97;;;16.87;;
11006;SDS011;8186;57.652;11.968;2023-04-24T02:03:12;19.07;;;15.97;;
11006;SDS011;8186;57.652;11.968;2023-04-24T02:05:39;18.20;;;16.30;;
11006;SDS011;8186;57.652;11.968;2023-04-24T02:08:06;19.43;;;17.43;;
11006;SDS011;8186;57.652;11.968;2023-04-24T02:10:33;18.50;;;16.57;;
11006;SDS011;8186;57.652;11.968;2023-04-24T02:13:00;18.67;;;16.73;;
11006;SDS011;8186;57.652;11.968;2023-04-24T02:15:28;18.83;;;16.93;;
11006;SDS011;8186;57.652;11.968;2023-04-24T02:17:55;17.60;;;15.77;;
11006;SDS011;8186;57.652;11.968;2023-04-24T02:20:22;17.77;;;15.97;;
11006;SDS011;8186;57.652;11.968;2023-04-24T02:22:49;19.23;;;15.63;;
11006;SDS011;8186;57.652;11.968;2023-04-24T02:25:16;18.30;;;16.43;;
11006;SDS011;8186;57.652;11.968;2023-04-24T02:27:43;19.73;;;16.80;;
11006;SDS011;8186;57.652;11.968;2023-04-24T02:30:10;18.27;;;16.37;;
11006;SDS011;8186;57.652;11.968;2023-04-24T02:32:39;19.43;;;16.43;;
11006;SDS011;8186;57.652;11.968;2023-04-24T02:35:06;18.87;;;16.00;;
11006;SDS011;8186;57.652;11.968;2023-04-24T02:37:33;17.67;;;15.87;;
11006;SDS011;8186;57.652;11.968;2023-04-24T02:40:00;17.87;;;16.00;;
11006;SDS011;8186;57.652;11.968;2023-04-24T02:42:27;18.17;;;16.30;;
11006;SDS011;8186;57.652;11.968;2023-04-24T02:44:54;18.73;;;16.73;;
11006;SDS011;8186;57.652;11.968;2023-04-24T02:47:21;18.23;;;16.43;;
11006;SDS011;8186;57.652;11.968;2023-04-24T02:49:49;18.50;;;16.60;;
11006;SDS011;8186;57.652;11.968;2023-04-24T02:52:16;18.77;;;16.77;;
11006;SDS011;8186;57.652;11.968;2023-04-24T02:54:43;18.10;;;16.30;;
11006;SDS011;8186;57.652;11.968;2023-04-24T02:57:10;18.53;;;16.63;;
11006;SDS011;8186;57.652;11.968;2023-04-24T02:59:37;18.20;;;16.30;;
11006;SDS011;8186;57.652;11.968;2023-04-24T03:02:04;16.37;;;14.70;;
11006;SDS011;8186;57.652;11.968;2023-04-24T03:04:30;18.50;;;16.57;;
11006;SDS011;8186;57.652;11.968;2023-04-24T03:06:59;17.67;;;15.87;;
11006;SDS011;8186;57.652;11.968;2023-04-24T03:09:26;19.00;;;16.53;;
11006;SDS011;8186;57.652;11.968;2023-04-24T03:11:53;16.80;;;14.73;;
11006;SDS011;8186;57.652;11.968;2023-04-24T03:14:20;18.23;;;16.43;;
11006;SDS011;8186;57.652;11.968;2023-04-24T03:16:47;20.13;;;16.23;;
11006;SDS011;8186;57.652;11.968;2023-04-24T03:19:15;17.00;;;15.30;;
11006;SDS011;8186;57.652;11.968;2023-04-24T03:21:42;17.30;;;15.47;;
11006;SDS011;8186;57.652;11.968;2023-04-24T03:24:10;18.13;;;14.90;;
11006;SDS011;8186;57.652;11.968;2023-04-24T03:26:37;16.20;;;14.30;;
11006;SDS011;8186;57.652;11.968;2023-04-24T03:29:04;16.93;;;15.17;;
11006;SDS011;8186;57.652;11.968;2023-04-24T03:31:31;18.03;;;16.17;;
11006;SDS011;8186;57.652;11.968;2023-04-24T03:33:58;18.03;;;14.93;;
11006;SDS011;8186;57.652;11.968;2023-04-24T03:36:25;18.03;;;16.20;;
11006;SDS011;8186;57.652;11.968;2023-04-24T03:38:52;17.30;;;15.50;;
11006;SDS011;8186;57.652;11.968;2023-04-24T03:41:21;15.70;;;14.10;;
11006;SDS011;8186;57.652;11.968;2023-04-24T03:43:48;16.60;;;14.90;;
11006;SDS011;8186;57.652;11.968;2023-04-24T03:46:15;16.10;;;14.53;;
11006;SDS011;8186;57.652;11.968;2023-04-24T03:48:42;16.57;;;14.87;;
11006;SDS011;8186;57.652;11.968;2023-04-24T03:51:09;16.63;;;14.60;;
11006;SDS011;8186;57.652;11.968;2023-04-24T03:53:36;16.73;;;14.37;;
11006;SDS011;8186;57.652;11.968;2023-04-24T03:56:03;16.00;;;14.43;;
11006;SDS011;8186;57.652;11.968;2023-04-24T03:58:32;16.10;;;14.43;;
11006;SDS011;8186;57.652;11.968;2023-04-24T04:00:59;15.87;;;14.27;;
11006;SDS011;8186;57.652;11.968;2023-04-24T04:03:25;16.37;;;14.73;;
11006;SDS011;8186;57.652;11.968;2023-04-24T04:05:52;15.90;;;14.17;;
11006;SDS011;8186;57.652;11.968;2023-04-24T04:08:21;16.37;;;14.27;;
11006;SDS011;8186;57.652;11.968;2023-04-24T04:10:48;15.30;;;13.67;;
11006;SDS011;8186;57.652;11.968;2023-04-24T04:13:14;17.00;;;14.23;;
11006;SDS011;8186;57.652;11.968;2023-04-24T04:15:43;15.70;;;14.10;;
11006;SDS011;8186;57.652;11.968;2023-04-24T04:18:10;16.43;;;14.73;;
11006;SDS011;8186;57.652;11.968;2023-04-24T04:20:36;17.33;;;14.57;;
11006;SDS011;8186;57.652;11.968;2023-04-24T04:23:03;16.30;;;14.60;;
11006;SDS011;8186;57.652;11.968;2023-04-24T04:25:33;16.30;;;14.60;;
11006;SDS011;8186;57.652;11.968;2023-04-24T04:28:00;17.37;;;14.80;;
11006;SDS011;8186;57.652;11.968;2023-04-24T04:30:27;15.90;;;14.30;;
11006;SDS011;8186;57.652;11.968;2023-04-24T04:32:56;16.87;;;14.27;;
11006;SDS011;8186;57.652;11.968;2023-04-24T04:35:23;17.37;;;13.67;;
11006;SDS011;8186;57.652;11.968;2023-04-24T04:37:50;15.43;;;13.70;;
11006;SDS011;8186;57.652;11.968;2023-04-24T04:40:17;17.23;;;13.50;;
11006;SDS011;8186;57.652;11.968;2023-04-24T04:42:44;15.97;;;14.03;;
11006;SDS011;8186;57.652;11.968;2023-04-24T04:45:12;15.90;;;14.20;;
11006;SDS011;8186;57.652;11.968;2023-04-24T04:47:42;15.87;;;13.83;;
11006;SDS011;8186;57.652;11.968;2023-04-24T04:50:11;15.50;;;13.90;;
11006;SDS011;8186;57.652;11.968;2023-04-24T04:52:37;15.10;;;13.53;;
11006;SDS011;8186;57.652;11.968;2023-04-24T04:55:05;17.37;;;13.73;;
11006;SDS011;8186;57.652;11.968;2023-04-24T04:57:32;16.30;;;14.53;;
11006;SDS011;8186;57.652;11.968;2023-04-24T04:59:59;16.83;;;14.47;;
11006;SDS011;8186;57.652;11.968;2023-04-24T05:02:26;16.27;;;12.80;;
11006;SDS011;8186;57.652;11.968;2023-04-24T05:04:53;16.17;;;13.27;;
11006;SDS011;8186;57.652;11.968;2023-04-24T05:07:22;14.93;;;13.23;;
11006;SDS011;8186;57.652;11.968;2023-04-24T05:09:49;15.77;;;14.03;;
11006;SDS011;8186;57.652;11.968;2023-04-24T05:12:16;15.33;;;13.80;;
11006;SDS011;8186;57.652;11.968;2023-04-24T05:14:43;14.53;;;12.90;;
11006;SDS011;8186;57.652;11.968;2023-04-24T05:17:10;14.57;;;13.03;;
11006;SDS011;8186;57.652;11.968;2023-04-24T05:19:37;15.43;;;13.57;;
11006;SDS011;8186;57.652;11.968;2023-04-24T05:22:04;15.30;;;13.07;;
11006;SDS011;8186;57.652;11.968;2023-04-24T05:24:33;14.13;;;12.07;;
11006;SDS011;8186;57.652;11.968;2023-04-24T05:27:00;13.87;;;12.57;;
11006;SDS011;8186;57.652;11.968;2023-04-24T05:29:27;17.70;;;13.63;;
11006;SDS011;8186;57.652;11.968;2023-04-24T05:31:56;15.27;;;13.67;;
11006;SDS011;8186;57.652;11.968;2023-04-24T05:34:22;13.77;;;11.83;;
11006;SDS011;8186;57.652;11.968;2023-04-24T05:36:50;14.57;;;12.67;;
11006;SDS011;8186;57.652;11.968;2023-04-24T05:39:17;13.80;;;12.40;;
11006;SDS011;8186;57.652;11.968;2023-04-24T05:41:46;15.77;;;12.73;;
11006;SDS011;8186;57.652;11.968;2023-04-24T05:44:13;14.53;;;12.20;;
11006;SDS011;8186;57.652;11.968;2023-04-24T05:46:39;13.67;;;12.37;;
11006;SDS011;8186;57.652;11.968;2023-04-24T05:49:06;13.87;;;12.30;;
11006;SDS011;8186;57.652;11.968;2023-04-24T05:51:33;12.77;;;11.47;;
11006;SDS011;8186;57.652;11.968;2023-04-24T05:54:00;13.30;;;11.90;;
11006;SDS011;8186;57.652;11.968;2023-04-24T05:56:28;13.23;;;11.93;;
11006;SDS011;8186;57.652;11.968;2023-04-24T05:58:57;13.63;;;12.10;;
11006;SDS011;8186;57.652;11.968;2023-04-24T06:01:24;13.03;;;11.73;;
11006;SDS011;8186;57.652;11.968;2023-04-24T06:03:52;12.77;;;11.47;;
11006;SDS011;8186;57.652;11.968;2023-04-24T06:06:19;13.57;;;12.17;;
11006;SDS011;8186;57.652;11.968;2023-04-24T06:08:46;12.77;;;11.47;;
11006;SDS011;8186;57.652;11.968;2023-04-24T06:11:13;12.37;;;11.17;;
11006;SDS011;8186;57.652;11.968;2023-04-24T06:13:40;13.33;;;11.43;;
11006;SDS011;8186;57.652;11.968;2023-04-24T06:16:08;12.67;;;11.40;;
11006;SDS011;8186;57.652;11.968;2023-04-24T06:18:35;13.33;;;11.30;;
11006;SDS011;8186;57.652;11.968;2023-04-24T06:21:02;12.73;;;11.43;;
11006;SDS011;8186;57.652;11.968;2023-04-24T06:23:30;13.53;;;11.47;;
11006;SDS011;8186;57.652;11.968;2023-04-24T06:25:58;11.97;;;10.47;;
11006;SDS011;8186;57.652;11.968;2023-04-24T06:28:25;12.10;;;10.80;;
11006;SDS011;8186;57.652;11.968;2023-04-24T06:30:52;12.47;;;11.17;;
11006;SDS011;8186;57.652;11.968;2023-04-24T06:33:20;12.83;;;11.40;;
11006;SDS011;8186;57.652;11.968;2023-04-24T06:35:47;12.53;;;10.77;;
11006;SDS011;8186;57.652;11.968;2023-04-24T06:38:14;13.57;;;11.00;;
11006;SDS011;8186;57.652;11.968;2023-04-24T06:40:41;12.27;;;11.07;;
11006;SDS011;8186;57.652;11.968;2023-04-24T06:43:08;13.00;;;10.63;;
11006;SDS011;8186;57.652;11.968;2023-04-24T06:45:36;14.03;;;11.47;;
11006;SDS011;8186;57.652;11.968;2023-04-24T06:48:04;12.70;;;11.40;;
11006;SDS011;8186;57.652;11.968;2023-04-24T06:50:32;13.37;;;11.60;;
11006;SDS011;8186;57.652;11.968;2023-04-24T06:52:59;13.20;;;11.13;;
11006;SDS011;8186;57.652;11.968;2023-04-24T06:55:26;13.40;;;12.10;;
11006;SDS011;8186;57.652;11.968;2023-04-24T06:57:53;12.93;;;11.53;;
11006;SDS011;8186;57.652;11.968;2023-04-24T07:00:20;12.33;;;11.13;;
11006;SDS011;8186;57.652;11.968;2023-04-24T07:02:49;12.30;;;11.03;;
11006;SDS011;8186;57.652;11.968;2023-04-24T07:05:16;11.93;;;10.73;;
11006;SDS011;8186;57.652;11.968;2023-04-24T07:07:47;14.00;;;10.63;;
11006;SDS011;8186;57.652;11.968;2023-04-24T07:10:14;11.57;;;10.43;;
11006;SDS011;8186;57.652;11.968;2023-04-24T07:12:42;12.87;;;11.60;;
11006;SDS011;8186;57.652;11.968;2023-04-24T07:15:09;12.23;;;11.03;;
11006;SDS011;8186;57.652;11.968;2023-04-24T07:17:37;14.13;;;11.60;;
11006;SDS011;8186;57.652;11.968;2023-04-24T07:20:08;12.50;;;11.23;;
11006;SDS011;8186;57.652;11.968;2023-04-24T07:22:37;11.37;;;10.27;;
11006;SDS011;8186;57.652;11.968;2023-04-24T07:25:06;12.53;;;11.20;;
11006;SDS011;8186;57.652;11.968;2023-04-24T07:27:33;12.13;;;10.87;;
11006;SDS011;8186;57.652;11.968;2023-04-24T07:30:01;12.93;;;11.63;;
11006;SDS011;8186;57.652;11.968;2023-04-24T07:32:29;13.17;;;11.87;;
11006;SDS011;8186;57.652;11.968;2023-04-24T07:34:56;12.27;;;11.17;;
11006;SDS011;8186;57.652;11.968;2023-04-24T07:37:23;13.07;;;11.23;;
11006;SDS011;8186;57.652;11.968;2023-04-24T07:39:50;12.83;;;11.53;;
11006;SDS011;8186;57.652;11.968;2023-04-24T07:42:18;12.60;;;10.77;;
11006;SDS011;8186;57.652;11.968;2023-04-24T07:44:45;12.70;;;11.40;;
11006;SDS011;8186;57.652;11.968;2023-04-24T07:47:13;12.47;;;11.20;;
11006;SDS011;8186;57.652;11.968;2023-04-24T07:49:41;13.83;;;12.50;;
11006;SDS011;8186;57.652;11.968;2023-04-24T07:52:08;12.30;;;11.20;;
11006;SDS011;8186;57.652;11.968;2023-04-24T07:54:35;13.67;;;12.27;;
11006;SDS011;8186;57.652;11.968;2023-04-24T07:57:03;13.17;;;11.87;;
11006;SDS011;8186;57.652;11.968;2023-04-24T07:59:33;14.13;;;12.77;;
11006;SDS011;8186;57.652;11.968;2023-04-24T08:02:00;13.90;;;12.40;;
11006;SDS011;8186;57.652;11.968;2023-04-24T08:04:27;14.23;;;12.50;;
11006;SDS011;8186;57.652;11.968;2023-04-24T08:06:54;14.70;;;12.93;;
11006;SDS011;8186;57.652;11.968;2023-04-24T08:09:21;14.20;;;12.70;;
11006;SDS011;8186;57.652;11.968;2023-04-24T08:11:48;15.70;;;13.90;;
11006;SDS011;8186;57.652;11.968;2023-04-24T08:14:15;14.93;;;13.00;;
11006;SDS011;8186;57.652;11.968;2023-04-24T08:16:43;14.93;;;13.30;;
11006;SDS011;8186;57.652;11.968;2023-04-24T08:19:10;17.63;;;13.83;;
11006;SDS011;8186;57.652;11.968;2023-04-24T08:21:37;16.47;;;13.47;;
11006;SDS011;8186;57.652;11.968;2023-04-24T08:24:04;15.17;;;13.50;;
11006;SDS011;8186;57.652;11.968;2023-04-24T08:26:33;16.37;;;14.63;;
11006;SDS011;8186;57.652;11.968;2023-04-24T08:29:00;14.80;;;13.30;;
11006;SDS011;8186;57.652;11.968;2023-04-24T08:31:27;17.17;;;12.93;;
11006;SDS011;8186;57.652;11.968;2023-04-24T08:33:55;14.10;;;12.70;;
11006;SDS011;8186;57.652;11.968;2023-04-24T08:36:22;14.17;;;12.70;;
11006;SDS011;8186;57.652;11.968;2023-04-24T08:38:49;13.70;;;12.40;;
11006;SDS011;8186;57.652;11.968;2023-04-24T08:41:16;16.90;;;13.57;;
11006;SDS011;8186;57.652;11.968;2023-04-24T08:43:45;13.50;;;12.20;;
11006;SDS011;8186;57.652;11.968;2023-04-24T08:46:13;13.10;;;11.77;;
11006;SDS011;8186;57.652;11.968;2023-04-24T08:48:40;14.77;;;13.20;;
11006;SDS011;8186;57.652;11.968;2023-04-24T08:51:08;12.53;;;11.23;;
11006;SDS011;8186;57.652;11.968;2023-04-24T08:53:36;11.67;;;10.53;;
11006;SDS011;8186;57.652;11.968;2023-04-24T08:56:03;12.40;;;10.90;;
11006;SDS011;8186;57.652;11.968;2023-04-24T08:58:31;11.30;;;10.00;;
11006;SDS011;8186;57.652;11.968;2023-04-24T09:00:58;11.53;;;10.00;;
11006;SDS011;8186;57.652;11.968;2023-04-24T09:03:26;10.17;;;9.03;;
11006;SDS011;8186;57.652;11.968;2023-04-24T09:05:53;9.10;;;7.97;;
11006;SDS011;8186;57.652;11.968;2023-04-24T09:08:24;9.57;;;8.57;;
11006;SDS011;8186;57.652;11.968;2023-04-24T09:10:52;8.80;;;7.63;;
11006;SDS011;8186;57.652;11.968;2023-04-24T09:13:19;9.13;;;8.20;;
11006;SDS011;8186;57.652;11.968;2023-04-24T09:15:46;8.50;;;7.70;;
11006;SDS011;8186;57.652;11.968;2023-04-24T09:18:13;10.20;;;7.83;;
11006;SDS011;8186;57.652;11.968;2023-04-24T09:20:59;7.93;;;7.03;;
11006;SDS011;8186;57.652;11.968;2023-04-24T09:23:29;7.53;;;6.80;;
11006;SDS011;8186;57.652;11.968;2023-04-24T09:25:57;8.27;;;7.47;;
11006;SDS011;8186;57.652;11.968;2023-04-24T09:28:25;8.10;;;7.27;;
11006;SDS011;8186;57.652;11.968;2023-04-24T09:31:02;9.77;;;7.93;;
11006;SDS011;8186;57.652;11.968;2023-04-24T09:33:30;9.17;;;7.17;;
11006;SDS011;8186;57.652;11.968;2023-04-24T09:35:57;7.83;;;7.03;;
11006;SDS011;8186;57.652;11.968;2023-04-24T09:38:32;10.13;;;7.40;;
11006;SDS011;8186;57.652;11.968;2023-04-24T09:41:00;10.17;;;7.87;;
11006;SDS011;8186;57.652;11.968;2023-04-24T09:43:28;7.93;;;7.13;;
11006;SDS011;8186;57.652;11.968;2023-04-24T09:45:56;11.57;;;7.93;;
11006;SDS011;8186;57.652;11.968;2023-04-24T09:48:30;8.40;;;7.60;;
11006;SDS011;8186;57.652;11.968;2023-04-24T09:50:58;8.23;;;7.43;;
11006;SDS011;8186;57.652;11.968;2023-04-24T09:53:25;9.63;;;7.83;;
11006;SDS011;8186;57.652;11.968;2023-04-24T09:55:54;8.50;;;7.70;;
11006;SDS011;8186;57.652;11.968;2023-04-24T09:58:25;8.20;;;7.40;;
11006;SDS011;8186;57.652;11.968;2023-04-24T10:00:56;8.97;;;8.07;;
11006;SDS011;8186;57.652;11.968;2023-04-24T10:03:23;8.27;;;7.53;;
11006;SDS011;8186;57.652;11.968;2023-04-24T10:05:52;7.97;;;7.23;;
11006;SDS011;8186;57.652;11.968;2023-04-24T10:08:19;9.00;;;7.67;;
11006;SDS011;8186;57.652;11.968;2023-04-24T10:10:47;8.60;;;7.70;;
11006;SDS011;8186;57.652;11.968;2023-04-24T10:13:15;8.67;;;7.77;;
11006;SDS011;8186;57.652;11.968;2023-04-24T10:15:42;9.00;;;8.10;;
11006;SDS011;8186;57.652;11.968;2023-04-24T10:18:09;8.87;;;7.97;;
11006;SDS011;8186;57.652;11.968;2023-04-24T10:20:37;9.73;;;8.03;;
11006;SDS011;8186;57.652;11.968;2023-04-24T10:23:05;9.30;;;8.30;;
11006;SDS011;8186;57.652;11.968;2023-04-24T10:25:33;8.80;;;7.90;;
11006;SDS011;8186;57.652;11.968;2023-04-24T10:28:02;9.13;;;8.23;;
11006;SDS011;8186;57.652;11.968;2023-04-24T10:30:31;8.87;;;7.97;;
11006;SDS011;8186;57.652;11.968;2023-04-24T10:33:01;7.67;;;6.97;;
11006;SDS011;8186;57.652;11.968;2023-04-24T10:35:30;9.77;;;8.77;;
11006;SDS011;8186;57.652;11.968;2023-04-24T10:37:58;8.80;;;7.90;;
11006;SDS011;8186;57.652;11.968;2023-04-24T10:40:26;8.90;;;8.00;;
11006;SDS011;8186;57.652;11.968;2023-04-24T10:42:54;9.07;;;7.90;;
11006;SDS011;8186;57.652;11.968;2023-04-24T10:45:22;9.27;;;8.47;;
11006;SDS011;8186;57.652;11.968;2023-04-24T10:47:52;8.33;;;7.53;;
11006;SDS011;8186;57.652;11.968;2023-04-24T10:50:19;10.50;;;7.67;;
11006;SDS011;8186;57.652;11.968;2023-04-24T10:52:46;8.63;;;7.50;;
11006;SDS011;8186;57.652;11.968;2023-04-24T10:55:16;8.10;;;7.30;;
11006;SDS011;8186;57.652;11.968;2023-04-24T11:00:28;7.67;;;6.97;;
11006;SDS011;8186;57.652;11.968;2023-04-24T11:02:57;7.80;;;7.00;;
11006;SDS011;8186;57.652;11.968;2023-04-24T11:08:23;7.80;;;7.00;;
11006;SDS011;8186;57.652;11.968;2023-04-24T11:10:55;6.97;;;6.37;;
11006;SDS011;8186;57.652;11.968;2023-04-24T11:13:24;8.73;;;6.67;;
11006;SDS011;8186;57.652;11.968;2023-04-24T11:16:11;7.27;;;6.53;;
11006;SDS011;8186;57.652;11.968;2023-04-24T11:18:40;7.47;;;6.33;;
11006;SDS011;8186;57.652;11.968;2023-04-24T11:21:11;7.30;;;6.70;;
11006;SDS011;8186;57.652;11.968;2023-04-24T11:23:38;7.00;;;6.30;;
11006;SDS011;8186;57.652;11.968;2023-04-24T11:26:12;6.67;;;6.07;;
11006;SDS011;8186;57.652;11.968;2023-04-24T11:28:44;7.10;;;6.40;;
11006;SDS011;8186;57.652;11.968;2023-04-24T11:34:08;6.10;;;5.60;;
11006;SDS011;8186;57.652;11.968;2023-04-24T11:36:36;6.23;;;5.57;;
11006;SDS011;8186;57.652;11.968;2023-04-24T11:39:03;8.03;;;5.07;;
11006;SDS011;8186;57.652;11.968;2023-04-24T11:41:30;7.00;;;5.27;;
11006;SDS011;8186;57.652;11.968;2023-04-24T11:43:57;7.00;;;6.30;;
11006;SDS011;8186;57.652;11.968;2023-04-24T11:46:27;5.27;;;4.77;;
11006;SDS011;8186;57.652;11.968;2023-04-24T11:48:55;6.60;;;5.50;;
11006;SDS011;8186;57.652;11.968;2023-04-24T11:51:24;6.30;;;5.80;;
11006;SDS011;8186;57.652;11.968;2023-04-24T11:53:51;6.33;;;5.73;;
11006;SDS011;8186;57.652;11.968;2023-04-24T11:56:19;6.93;;;6.23;;
11006;SDS011;8186;57.652;11.968;2023-04-24T11:58:46;5.70;;;5.10;;
11006;SDS011;8186;57.652;11.968;2023-04-24T12:01:13;7.43;;;5.47;;
11006;SDS011;8186;57.652;11.968;2023-04-24T12:03:40;5.97;;;5.30;;
11006;SDS011;8186;57.652;11.968;2023-04-24T12:06:09;6.37;;;5.63;;
11006;SDS011;8186;57.652;11.968;2023-04-24T12:08:39;5.50;;;5.00;;
11006;SDS011;8186;57.652;11.968;2023-04-24T12:11:06;5.00;;;4.60;;
11006;SDS011;8186;57.652;11.968;2023-04-24T12:13:33;7.03;;;4.90;;
11006;SDS011;8186;57.652;11.968;2023-04-24T12:16:01;6.37;;;4.43;;
11006;SDS011;8186;57.652;11.968;2023-04-24T12:18:29;5.03;;;4.60;;
11006;SDS011;8186;57.652;11.968;2023-04-24T12:21:03;4.73;;;4.33;;
11006;SDS011;8186;57.652;11.968;2023-04-24T12:23:43;5.07;;;4.43;;
11006;SDS011;8186;57.652;11.968;2023-04-24T12:26:11;4.83;;;4.43;;
11006;SDS011;8186;57.652;11.968;2023-04-24T12:28:38;5.53;;;3.83;;
11006;SDS011;8186;57.652;11.968;2023-04-24T12:31:06;4.43;;;3.87;;
11006;SDS011;8186;57.652;11.968;2023-04-24T12:33:33;5.30;;;4.33;;
11006;SDS011;8186;57.652;11.968;2023-04-24T12:36:00;4.50;;;4.10;;
11006;SDS011;8186;57.652;11.968;2023-04-24T12:38:29;5.37;;;3.80;;
11006;SDS011;8186;57.652;11.968;2023-04-24T12:41:04;4.47;;;3.87;;
11006;SDS011;8186;57.652;11.968;2023-04-24T12:43:31;4.60;;;4.20;;
11006;SDS011;8186;57.652;11.968;2023-04-24T12:45:58;4.87;;;4.27;;
11006;SDS011;8186;57.652;11.968;2023-04-24T12:48:25;4.30;;;3.53;;
11006;SDS011;8186;57.652;11.968;2023-04-24T12:50:52;3.97;;;3.67;;
11006;SDS011;8186;57.652;11.968;2023-04-24T12:53:20;3.47;;;3.17;;
11006;SDS011;8186;57.652;11.968;2023-04-24T12:55:48;4.00;;;3.60;;
11006;SDS011;8186;57.652;11.968;2023-04-24T12:58:20;4.10;;;3.70;;
11006;SDS011;8186;57.652;11.968;2023-04-24T13:00:47;3.73;;;3.43;;
11006;SDS011;8186;57.652;11.968;2023-04-24T13:03:14;5.03;;;3.33;;
11006;SDS011;8186;57.652;11.968;2023-04-24T13:05:41;3.90;;;3.50;;
11006;SDS011;8186;57.652;11.968;2023-04-24T13:08:09;4.30;;;3.53;;
11006;SDS011;8186;57.652;11.968;2023-04-24T13:10:36;4.03;;;3.53;;
11006;SDS011;8186;57.652;11.968;2023-04-24T13:13:03;3.73;;;3.27;;
11006;SDS011;8186;57.652;11.968;2023-04-24T13:15:33;3.70;;;3.40;;
11006;SDS011;8186;57.652;11.968;2023-04-24T13:18:00;3.83;;;3.47;;
11006;SDS011;8186;57.652;11.968;2023-04-24T13:20:27;4.27;;;3.20;;
11006;SDS011;8186;57.652;11.968;2023-04-24T13:22:54;3.67;;;3.37;;
11006;SDS011;8186;57.652;11.968;2023-04-24T13:25:21;4.50;;;4.20;;
11006;SDS011;8186;57.652;11.968;2023-04-24T13:27:50;4.07;;;3.77;;
11006;SDS011;8186;57.652;11.968;2023-04-24T13:30:17;6.50;;;4.50;;
11006;SDS011;8186;57.652;11.968;2023-04-24T13:32:46;5.03;;;4.37;;
11006;SDS011;8186;57.652;11.968;2023-04-24T13:35:12;4.27;;;3.90;;
11006;SDS011;8186;57.652;11.968;2023-04-24T13:37:40;5.60;;;4.43;;
11006;SDS011;8186;57.652;11.968;2023-04-24T13:40:07;4.90;;;4.40;;
11006;SDS011;8186;57.652;11.968;2023-04-24T13:42:35;4.73;;;4.33;;
11006;SDS011;8186;57.652;11.968;2023-04-24T13:45:02;4.60;;;4.13;;
11006;SDS011;8186;57.652;11.968;2023-04-24T13:47:30;4.53;;;4.07;;
11006;SDS011;8186;57.652;11.968;2023-04-24T13:49:58;5.73;;;4.57;;
11006;SDS011;8186;57.652;11.968;2023-04-24T13:52:25;5.33;;;4.63;;
11006;SDS011;8186;57.652;11.968;2023-04-24T13:54:53;6.83;;;4.97;;
11006;SDS011;8186;57.652;11.968;2023-04-24T13:57:20;6.27;;;5.13;;
11006;SDS011;8186;57.652;11.968;2023-04-24T13:59:47;5.60;;;5.10;;
11006;SDS011;8186;57.652;11.968;2023-04-24T14:02:14;6.73;;;5.23;;
11006;SDS011;8186;57.652;11.968;2023-04-24T14:04:41;7.27;;;5.53;;
11006;SDS011;8186;57.652;11.968;2023-04-24T14:07:09;6.07;;;5.47;;
11006;SDS011;8186;57.652;11.968;2023-04-24T14:09:36;7.53;;;6.50;;
11006;SDS011;8186;57.652;11.968;2023-04-24T14:12:03;7.03;;;6.20;;
11006;SDS011;8186;57.652;11.968;2023-04-24T14:14:32;7.10;;;6.40;;
11006;SDS011;8186;57.652;11.968;2023-04-24T14:16:59;7.40;;;6.70;;
11006;SDS011;8186;57.652;11.968;2023-04-24T14:19:26;6.77;;;6.07;;
11006;SDS011;8186;57.652;11.968;2023-04-24T14:21:53;7.33;;;6.60;;
11006;SDS011;8186;57.652;11.968;2023-04-24T14:24:23;7.67;;;6.97;;
11006;SDS011;8186;57.652;11.968;2023-04-24T14:26:50;7.00;;;5.93;;
11006;SDS011;8186;57.652;11.968;2023-04-24T14:29:17;6.83;;;6.17;;
11006;SDS011;8186;57.652;11.968;2023-04-24T14:31:44;7.17;;;6.30;;
11006;SDS011;8186;57.652;11.968;2023-04-24T14:34:12;7.03;;;5.63;;
11006;SDS011;8186;57.652;11.968;2023-04-24T14:36:40;6.07;;;5.47;;
11006;SDS011;8186;57.652;11.968;2023-04-24T14:39:07;5.93;;;5.37;;
11006;SDS011;8186;57.652;11.968;2023-04-24T14:41:35;7.17;;;6.17;;